Time;durP1;ratioP1;P1;durP2;ratioP2;P2;SDS_P1;SDS_P2;PMS_P1;PMS_P2;Temp;Humidity;BMP_temperature;BMP_pressure;BME280_temperature;BME280_humidity;BME280_pressure;Samples;Min_cycle;Max_cycle;Signal;HPM_P1;HPM_P2
2022/08/04 00:02:02;;;;;;;4.72;3.05;;;;;;;24.22;46.80;100740.47;5058082;28;20053;-57
2022/08/04 00:04:46;;;;;;;7.18;4.00;;;;;;;24.20;46.90;100737.16;5057178;28;20045;-56
2022/08/04 00:07:35;;;;;;;7.38;3.72;;;;;;;24.17;46.53;100747.41;5056228;28;20078;-56
2022/08/04 00:10:12;;;;;;;6.18;3.58;;;;;;;24.14;46.02;100742.41;5048878;28;20060;-57
2022/08/04 00:12:43;;;;;;;6.30;3.38;;;;;;;24.11;46.14;100740.88;5064779;28;20500;-58
2022/08/04 00:15:13;;;;;;;5.40;3.78;;;;;;;24.11;45.86;100732.81;5046272;28;20071;-57
2022/08/04 00:17:53;;;;;;;4.57;3.47;;;;;;;24.11;46.02;100740.06;5059492;28;20045;-57
2022/08/04 00:20:21;;;;;;;6.18;3.25;;;;;;;24.09;46.52;100729.50;5054384;28;20049;-58
2022/08/04 00:22:51;;;;;;;5.82;3.25;;;;;;;24.06;46.43;100737.91;5059809;28;20052;-58
2022/08/04 00:25:18;;;;;;;9.13;3.95;;;;;;;24.06;46.22;100734.38;5060452;28;20665;-59
2022/08/04 00:27:45;;;;;;;4.22;3.38;;;;;;;24.06;46.72;100735.22;5048067;28;20043;-57
2022/08/04 00:30:12;;;;;;;5.47;3.08;;;;;;;24.04;47.12;100739.06;5056194;28;20682;-57
2022/08/04 00:32:40;;;;;;;7.88;3.38;;;;;;;24.01;46.95;100737.59;5057643;28;20048;-61
2022/08/04 00:35:09;;;;;;;5.93;3.25;;;;;;;23.98;46.81;100738.75;5063351;28;20048;-60
2022/08/04 00:37:37;;;;;;;8.15;3.72;;;;;;;23.95;47.59;100739.09;5061850;28;20048;-61
2022/08/04 00:40:18;;;;;;;8.85;3.78;;;;;;;23.92;47.54;100731.41;5042991;28;20179;-57
2022/08/04 00:43:07;;;;;;;7.50;3.60;;;;;;;23.89;48.02;100734.44;5058784;28;20060;-60
2022/08/04 00:45:53;;;;;;;5.82;3.80;;;;;;;23.87;47.57;100732.94;5057849;28;20047;-57
2022/08/04 00:49:00;;;;;;;5.47;3.33;;;;;;;23.84;47.71;100736.81;5047015;28;20064;-54
2022/08/04 00:51:40;;;;;;;4.10;3.20;;;;;;;23.80;47.77;100732.78;5043840;28;20052;-54
2022/08/04 00:54:30;;;;;;;6.20;3.13;;;;;;;23.78;48.02;100734.00;5060333;28;20040;-57
2022/08/04 00:57:07;;;;;;;7.97;3.40;;;;;;;23.75;48.10;100737.84;5057116;28;20497;-53
2022/08/04 01:00:10;;;;;;;7.05;3.22;;;;;;;23.72;48.06;100741.72;5067594;28;20056;-55
2022/08/04 01:03:15;;;;;;;4.45;3.28;;;;;;;23.69;48.38;100738.56;5056248;28;20051;-59
2022/08/04 01:06:10;;;;;;;5.93;2.75;;;;;;;23.65;48.81;100732.69;5058443;28;20049;-57
2022/08/04 01:08:52;;;;;;;6.38;3.33;;;;;;;23.63;48.79;100734.66;5060268;28;20045;-58
2022/08/04 01:11:34;;;;;;;4.70;3.00;;;;;;;23.60;48.60;100740.41;5053128;28;20045;-58
2022/08/04 01:14:40;;;;;;;3.80;3.03;;;;;;;23.59;48.42;100725.25;5051429;28;20045;-56
2022/08/04 01:17:19;;;;;;;4.38;3.20;;;;;;;23.58;48.63;100734.34;5066580;28;20045;-55
2022/08/04 01:20:05;;;;;;;4.57;2.90;;;;;;;23.54;48.70;100722.25;5061724;28;20059;-58
2022/08/04 01:22:32;;;;;;;7.57;3.20;;;;;;;23.51;48.14;100733.38;5061635;28;20049;-55
2022/08/04 01:25:33;;;;;;;7.28;3.05;;;;;;;23.48;48.52;100736.38;5058769;28;20055;-57
2022/08/04 01:28:33;;;;;;;5.25;3.47;;;;;;;23.45;48.73;100729.50;5054884;28;20045;-57
2022/08/04 01:31:21;;;;;;;9.73;3.50;;;;;;;23.42;49.03;100745.16;5017250;28;20048;-57
2022/08/04 01:33:50;;;;;;;4.70;3.05;;;;;;;23.37;49.07;100744.78;5059279;28;20064;-57
2022/08/04 01:36:34;;;;;;;6.80;3.28;;;;;;;23.33;49.46;100743.47;5058010;28;20051;-58
2022/08/04 01:41:48;;;;;;;10.00;3.80;;;;;;;23.28;49.32;100738.63;5055491;28;20045;-58
2022/08/04 01:44:26;;;;;;;7.75;3.35;;;;;;;23.25;49.64;100737.09;5060652;28;20412;-58
2022/08/04 01:46:53;;;;;;;6.70;3.30;;;;;;;23.23;49.86;100749.84;5066350;28;20553;-56
2022/08/04 01:49:23;;;;;;;4.22;3.05;;;;;;;23.20;49.29;100744.00;5056845;28;20049;-55
2022/08/04 01:51:51;;;;;;;7.70;3.50;;;;;;;23.19;49.59;100742.28;5053409;28;20052;-55
2022/08/04 01:54:18;;;;;;;4.90;3.42;;;;;;;23.17;49.38;100738.97;5061233;28;20049;-56
2022/08/04 01:56:46;;;;;;;8.57;3.75;;;;;;;23.18;49.17;100740.63;5066088;28;20052;-56
2022/08/04 01:59:17;;;;;;;3.53;2.72;;;;;;;23.15;49.61;100743.66;5063718;28;20053;-55
2022/08/04 02:01:44;;;;;;;5.40;3.38;;;;;;;23.12;49.79;100742.16;5061024;28;20032;-59
2022/08/04 02:04:18;;;;;;;6.68;3.00;;;;;;;23.03;49.84;100743.16;5054283;28;20289;-57
2022/08/04 02:07:02;;;;;;;4.47;3.70;;;;;;;22.99;49.92;100739.13;5056452;28;20053;-55
2022/08/04 02:09:58;;;;;;;6.63;3.40;;;;;;;22.95;50.22;100737.78;5062938;28;20436;-57
2022/08/04 02:12:33;;;;;;;;;;;;;;;22.91;50.10;100739.97;5052644;28;20056;-58
2022/08/04 02:15:13;;;;;;;9.02;3.35;;;;;;;22.88;50.12;100734.91;5063763;28;19924;-56
2022/08/04 02:17:43;;;;;;;5.22;3.50;;;;;;;22.86;49.90;100734.22;5039481;28;20467;-56
2022/08/04 02:20:10;;;;;;;6.43;3.25;;;;;;;22.85;49.98;100729.03;5057023;28;20067;-56
2022/08/04 02:22:45;;;;;;;4.10;3.20;;;;;;;22.82;49.60;100735.56;5058995;28;20424;-57
2022/08/04 02:25:16;;;;;;;4.10;3.23;;;;;;;22.78;50.48;100731.53;5060956;28;20323;-57
2022/08/04 02:28:22;;;;;;;8.10;3.17;;;;;;;22.74;50.44;100725.69;5066568;28;20390;-58
2022/08/04 02:31:09;;;;;;;6.50;2.78;;;;;;;22.73;50.17;100728.53;5041542;28;20049;-58
2022/08/04 02:33:42;;;;;;;4.47;3.20;;;;;;;22.70;50.49;100724.34;5053322;28;20048;-59
2022/08/04 02:36:15;;;;;;;6.00;3.58;;;;;;;22.68;50.58;100720.97;5065137;28;20439;-58
2022/08/04 02:38:54;;;;;;;6.00;3.25;;;;;;;22.65;50.43;100715.09;5067511;28;20057;-57
2022/08/04 02:41:23;;;;;;;9.18;3.28;;;;;;;22.63;50.49;100714.44;5064710;28;20056;-57
2022/08/04 02:43:51;;;;;;;4.88;3.28;;;;;;;22.59;50.79;100713.91;5069673;28;20043;-62
2022/08/04 02:46:20;;;;;;;3.78;3.08;;;;;;;22.57;51.18;100715.09;5067551;28;20520;-56
2022/08/04 02:48:49;;;;;;;9.85;3.13;;;;;;;22.54;51.45;100710.06;5065565;28;20052;-58
2022/08/04 02:51:39;;;;;;;4.88;3.20;;;;;;;22.50;51.36;100706.88;5068558;28;20055;-56
2022/08/04 02:54:07;;;;;;;10.65;3.97;;;;;;;22.47;51.27;100707.22;5061918;28;20043;-55
2022/08/04 02:56:35;;;;;;;6.50;3.58;;;;;;;22.46;51.48;100714.41;5045862;22;20499;-75
2022/08/04 02:59:09;;;;;;;4.82;3.20;;;;;;;22.45;51.08;100717.25;5043368;28;20132;-74
2022/08/04 03:01:37;;;;;;;7.57;3.40;;;;;;;22.45;51.77;100706.53;5031375;28;20041;-74
2022/08/04 03:04:50;;;;;;;8.05;3.05;;;;;;;22.41;52.10;100706.00;5031532;28;20037;-75
2022/08/04 03:07:26;;;;;;;5.75;3.20;;;;;;;22.36;52.17;100711.03;5014386;28;20045;-75
2022/08/04 03:09:59;;;;;;;5.50;3.55;;;;;;;22.32;52.37;100706.16;5049616;28;20279;-74
2022/08/04 03:12:43;;;;;;;5.68;3.22;;;;;;;22.28;52.74;100713.69;5046034;28;20049;-74
2022/08/04 03:15:22;;;;;;;4.80;3.17;;;;;;;22.24;52.36;100712.34;5060549;28;20124;-74
2022/08/04 03:18:16;;;;;;;9.38;3.40;;;;;;;22.20;52.29;100716.38;5041015;28;20045;-75
2022/08/04 03:21:05;;;;;;;5.93;3.40;;;;;;;22.18;51.67;100716.53;5041554;28;20545;-75
2022/08/04 03:24:07;;;;;;;8.48;3.75;;;;;;;22.17;52.39;100717.53;5041021;28;20045;-75
2022/08/04 03:26:43;;;;;;;10.80;4.35;;;;;;;22.15;52.00;100719.53;5038592;28;20049;-74
2022/08/04 03:29:32;;;;;;;3.78;3.38;;;;;;;22.13;52.51;100724.22;5029882;28;20065;-75
2022/08/04 03:32:12;;;;;;;4.00;2.90;;;;;;;22.12;52.79;100716.34;5038050;28;20045;-75
2022/08/04 03:35:04;;;;;;;9.20;4.25;;;;;;;22.10;52.57;100710.28;5049002;28;20045;-74
2022/08/04 03:38:10;;;;;;;5.35;3.15;;;;;;;22.10;52.36;100712.94;5032666;28;20049;-74
2022/08/04 03:41:11;;;;;;;6.23;3.60;;;;;;;22.11;52.56;100718.16;5016719;28;20048;-75
2022/08/04 03:44:10;;;;;;;5.60;3.55;;;;;;;22.11;52.78;100717.31;5043169;28;20804;-75
2022/08/04 03:46:44;;;;;;;7.40;4.03;;;;;;;22.09;52.72;100711.28;5027858;28;20046;-74
2022/08/04 03:49:43;;;;;;;10.43;3.53;;;;;;;22.08;52.94;100720.34;5045595;28;20048;-73
2022/08/04 03:55:19;;;;;;;5.43;3.85;;;;;;;22.04;53.39;100714.44;5058111;28;20083;-74
2022/08/04 03:58:14;;;;;;;10.75;3.83;;;;;;;22.04;53.25;100709.09;5038256;28;20048;-75
2022/08/04 04:01:00;;;;;;;11.45;4.57;;;;;;;22.05;53.33;100717.97;5038562;28;20071;-75
2022/08/04 04:04:06;;;;;;;6.38;3.80;;;;;;;22.07;53.03;100710.63;5050460;28;20076;-74
2022/08/04 04:07:06;;;;;;;4.50;3.67;;;;;;;22.09;53.65;100713.97;5040608;28;20053;-74
2022/08/04 04:09:55;;;;;;;8.95;4.43;;;;;;;22.10;53.31;100708.41;5040822;28;20352;-74
2022/08/04 04:12:56;;;;;;;12.32;4.03;;;;;;;22.12;53.44;100709.16;5011714;28;20057;-75
2022/08/04 04:15:46;;;;;;;8.52;3.97;;;;;;;22.14;53.57;100714.34;5043026;28;20039;-75
2022/08/04 04:18:38;;;;;;;8.30;4.57;;;;;;;22.15;53.90;100711.47;5033654;28;20047;-75
2022/08/04 04:21:05;;;;;;;7.20;4.20;;;;;;;22.16;53.47;100713.19;5035453;28;20060;-75
2022/08/04 04:23:47;;;;;;;5.05;4.25;;;;;;;22.18;53.49;100708.47;5043346;28;20102;-75
2022/08/04 04:26:36;;;;;;;8.75;4.70;;;;;;;22.20;54.06;100716.38;5043669;28;20049;-75
2022/08/04 04:29:31;;;;;;;10.60;4.10;;;;;;;22.21;53.69;100715.38;5047858;28;20041;-75
2022/08/04 04:32:14;;;;;;;7.25;4.80;;;;;;;22.25;53.94;100714.06;5029623;28;20037;-75
2022/08/04 04:34:56;;;;;;;8.95;4.68;;;;;;;22.28;54.07;100719.06;5044693;28;20061;-75
2022/08/04 04:37:34;;;;;;;6.22;4.53;;;;;;;22.31;53.58;100725.97;5042769;28;20502;-75
2022/08/04 04:40:19;;;;;;;9.18;4.30;;;;;;;22.33;53.55;100724.78;5017974;28;21105;-75
2022/08/04 04:43:03;;;;;;;6.35;4.63;;;;;;;22.37;54.24;100725.28;5022047;28;20296;-75
2022/08/04 04:45:33;;;;;;;7.78;4.60;;;;;;;;;;5048230;28;20081;-75
2022/08/04 04:48:14;;;;;;;8.40;4.75;;;;;;;22.41;54.10;100726.63;5055020;28;20398;-75
2022/08/04 04:50:52;;;;;;;8.18;4.90;;;;;;;22.42;54.25;100722.94;5015418;28;20075;-75
2022/08/04 04:53:32;;;;;;;6.45;5.13;;;;;;;22.43;54.27;100724.66;5014241;28;20400;-75
2022/08/04 04:56:06;;;;;;;7.38;4.47;;;;;;;22.46;54.14;100732.34;5030212;28;20533;-75
2022/08/04 04:58:34;;;;;;;9.50;4.90;;;;;;;22.53;54.39;100732.53;5022198;28;20056;-75
2022/08/04 05:01:14;;;;;;;10.77;4.47;;;;;;;22.53;54.61;100725.31;5046536;28;20511;-75
2022/08/04 05:04:02;;;;;;;10.75;4.82;;;;;;;22.57;54.42;100731.22;5038427;28;20045;-75
2022/08/04 05:06:44;;;;;;;8.18;4.80;;;;;;;22.62;54.44;100728.88;5059741;28;20048;-75
2022/08/04 05:09:29;;;;;;;6.88;4.50;;;;;;;22.68;54.34;100730.88;5039135;28;20045;-75
2022/08/04 05:12:23;;;;;;;7.10;5.15;;;;;;;22.74;54.25;100728.38;5068382;28;20053;-75
2022/08/04 05:15:11;;;;;;;13.73;5.68;;;;;;;22.79;54.75;100730.56;5050817;28;20049;-75
2022/08/04 05:17:49;;;;;;;11.77;5.15;;;;;;;22.79;54.94;100735.09;5028214;28;20061;-75
2022/08/04 05:20:22;;;;;;;7.20;5.18;;;;;;;22.79;54.69;100729.72;5018167;28;20069;-75
2022/08/04 05:22:54;;;;;;;6.97;5.25;;;;;;;22.86;54.61;100728.88;5023441;28;20280;-75
2022/08/04 05:25:33;;;;;;;10.63;6.03;;;;;;;22.90;54.69;100727.56;5023931;28;20038;-75
2022/08/04 05:28:09;;;;;;;6.35;4.70;;;;;;;22.93;54.78;100729.06;5030430;28;20080;-75
2022/08/04 05:30:49;;;;;;;6.18;5.57;;;;;;;23.02;54.58;100729.91;5022195;28;20056;-75
2022/08/04 05:33:31;;;;;;;11.77;5.47;;;;;;;23.12;54.45;100727.88;5034394;28;20127;-75
2022/08/04 05:36:02;;;;;;;13.68;5.78;;;;;;;23.17;54.08;100734.41;5046025;28;20053;-75
2022/08/04 05:38:53;;;;;;;5.43;4.90;;;;;;;23.27;53.77;100738.78;5018184;28;20059;-75
2022/08/04 05:41:21;;;;;;;11.00;5.10;;;;;;;23.35;53.47;100739.59;5023840;28;20055;-75
2022/08/04 05:43:48;;;;;;;14.57;5.68;;;;;;;23.42;53.70;100732.53;5017114;28;20049;-75
2022/08/04 05:46:16;;;;;;;7.10;5.20;;;;;;;23.50;53.61;100734.34;5009771;28;20045;-75
2022/08/04 05:48:44;;;;;;;9.18;4.90;;;;;;;23.59;53.28;100727.94;5035550;28;20049;-75
2022/08/04 05:51:11;;;;;;;18.33;6.18;;;;;;;23.61;52.98;100725.94;5026105;28;20132;-75
2022/08/04 05:53:43;;;;;;;12.48;5.75;;;;;;;23.66;52.98;100731.66;5044110;28;20045;-75
2022/08/04 05:56:13;;;;;;;7.63;4.82;;;;;;;23.74;53.12;100731.66;5048784;28;20048;-75
2022/08/04 05:58:40;;;;;;;11.27;5.03;;;;;;;23.83;52.93;100724.38;5025262;28;20048;-75
2022/08/04 06:01:09;;;;;;;13.75;4.93;;;;;;;23.90;52.67;100725.34;5032407;28;20049;-75
2022/08/04 06:03:37;;;;;;;8.15;4.88;;;;;;;23.98;52.31;100724.47;5016747;28;20051;-75
2022/08/04 06:06:05;;;;;;;12.98;5.90;;;;;;;24.02;52.12;100730.34;5028936;28;20041;-75
2022/08/04 06:08:33;;;;;;;11.38;5.25;;;;;;;24.07;52.20;100730.66;5047384;28;20506;-75
2022/08/04 06:11:03;;;;;;;7.97;5.03;;;;;;;24.14;52.16;100728.97;5049091;28;20529;-75
2022/08/04 06:13:36;;;;;;;9.48;4.75;;;;;;;24.25;51.76;100731.25;5006417;28;20049;-75
2022/08/04 06:16:17;;;;;;;20.45;5.65;;;;;;;24.32;51.37;100734.91;5013100;28;20504;-74
2022/08/04 06:19:00;;;;;;;9.95;5.13;;;;;;;24.37;51.48;100732.56;5030326;28;20079;-73
2022/08/04 06:21:49;;;;;;;10.73;5.15;;;;;;;24.49;51.08;100735.66;5034403;28;20545;-74
2022/08/04 06:24:22;;;;;;;16.67;6.18;;;;;;;24.52;50.73;100738.00;5033533;28;20105;-74
2022/08/04 06:26:50;;;;;;;10.27;6.40;;;;;;;24.61;51.25;100746.84;5022472;28;20403;-73
2022/08/04 06:29:25;;;;;;;10.45;5.53;;;;;;;24.71;50.68;100744.75;5024988;28;20105;-74
2022/08/04 06:31:57;;;;;;;10.75;5.38;;;;;;;24.82;50.70;100746.22;5031597;28;20515;-74
2022/08/04 06:34:44;;;;;;;15.43;5.53;;;;;;;24.88;50.66;100740.09;5029237;28;20195;-74
2022/08/04 06:37:12;;;;;;;13.25;5.68;;;;;;;24.94;50.40;100739.34;5018612;28;20037;-74
2022/08/04 06:40:03;;;;;;;8.38;4.97;;;;;;;25.02;50.57;100747.38;5021328;28;20055;-74
2022/08/04 06:42:51;;;;;;;11.23;4.93;;;;;;;25.14;50.28;100748.66;5048895;28;20216;-74
2022/08/04 06:45:19;;;;;;;11.02;5.95;;;;;;;25.13;50.21;100746.97;5040417;28;20053;-75
2022/08/04 06:47:46;;;;;;;11.18;5.50;;;;;;;25.22;49.83;100743.19;5020408;28;20041;-74
2022/08/04 06:50:15;;;;;;;16.40;5.47;;;;;;;25.34;49.88;100743.56;5015651;28;20522;-74
2022/08/04 06:53:02;;;;;;;10.82;5.53;;;;;;;25.45;49.30;100745.81;5028918;28;20051;-74
2022/08/04 06:55:30;;;;;;;23.17;5.70;;;;;;;25.54;48.61;100740.34;5015569;28;20134;-74
2022/08/04 06:57:58;;;;;;;8.95;5.28;;;;;;;25.67;48.96;100730.59;5034121;28;20049;-73
2022/08/04 07:00:31;;;;;;;12.38;5.38;;;;;;;25.81;48.22;100742.41;5021794;28;20132;-74
2022/08/04 07:02:59;;;;;;;15.52;5.20;;;;;;;25.82;47.98;100738.69;5009652;28;20049;-74
2022/08/04 07:05:26;;;;;;;8.98;4.90;;;;;;;25.97;47.95;100734.09;5025276;28;20068;-74
2022/08/04 07:07:53;;;;;;;18.30;5.00;;;;;;;26.11;47.41;100737.81;5017656;28;20060;-74
2022/08/04 07:10:26;;;;;;;9.32;4.88;;;;;;;26.24;47.11;100734.44;5025795;28;20045;-74
2022/08/04 07:12:55;;;;;;;11.00;4.93;;;;;;;26.38;46.57;100741.66;5041492;28;20141;-74
2022/08/04 07:15:24;;;;;;;11.68;4.55;;;;;;;26.48;45.86;100731.44;5042483;28;20057;-73
2022/08/04 07:17:52;;;;;;;17.45;5.25;;;;;;;26.59;45.22;100740.03;5076057;28;20088;-73
2022/08/04 07:20:20;;;;;;;12.00;4.63;;;;;;;26.76;44.85;100741.47;5052027;28;20052;-74
2022/08/04 07:23:03;;;;;;;11.15;4.60;;;;;;;26.90;44.68;100734.31;5030879;28;20571;-74
2022/08/04 07:25:31;;;;;;;12.25;4.68;;;;;;;26.94;44.29;100741.00;5025904;28;20049;-74
2022/08/04 07:28:19;;;;;;;7.95;4.60;;;;;;;27.08;43.75;100740.06;5018432;28;20522;-74
2022/08/04 07:30:48;;;;;;;10.35;4.20;;;;;;;27.22;43.68;100739.16;5041716;28;20553;-74
2022/08/04 07:33:16;;;;;;;7.03;5.10;;;;;;;27.28;43.19;100734.84;5032554;28;20580;-74
2022/08/04 07:35:45;;;;;;;10.13;5.30;;;;;;;27.40;43.22;100738.69;5030487;28;20047;-74
2022/08/04 07:38:32;;;;;;;8.85;4.57;;;;;;;27.53;42.64;100732.53;5023411;28;20054;-74
2022/08/04 07:41:04;;;;;;;9.77;4.13;;;;;;;27.70;42.68;100733.03;5046547;28;20045;-74
2022/08/04 07:43:53;;;;;;;11.32;4.60;;;;;;;27.90;42.07;100725.03;5034793;28;20511;-74
2022/08/04 07:46:20;;;;;;;10.23;4.57;;;;;;;28.01;42.06;100728.03;5044024;28;20045;-74
2022/08/04 07:48:48;;;;;;;10.43;4.30;;;;;;;28.09;42.07;100727.00;5040811;28;20044;-74
2022/08/04 07:51:16;;;;;;;8.32;5.13;;;;;;;28.20;41.83;100717.47;5054666;28;20059;-74
2022/08/04 07:53:43;;;;;;;9.80;4.25;;;;;;;28.35;41.27;100720.03;5057209;28;20045;-74
2022/08/04 07:56:22;;;;;;;11.23;4.57;;;;;;;28.37;41.52;100723.34;5046131;28;20057;-74
2022/08/04 07:58:49;;;;;;;10.30;4.03;;;;;;;28.52;41.17;100726.72;5031929;28;20525;-74
2022/08/04 08:01:18;;;;;;;7.78;3.95;;;;;;;28.67;41.11;100730.06;5046208;28;20140;-75
2022/08/04 08:03:45;;;;;;;7.15;4.43;;;;;;;28.78;40.56;100720.53;5015520;28;20476;-74
2022/08/04 08:06:13;;;;;;;14.07;4.13;;;;;;;28.86;40.38;100723.00;5015628;28;20051;-74
2022/08/04 08:09:01;;;;;;;12.80;4.70;;;;;;;28.96;39.89;100722.66;5042898;28;20080;-74
2022/08/04 08:11:48;;;;;;;8.27;3.75;;;;;;;29.08;39.76;100720.13;5031956;28;20308;-74
2022/08/04 08:14:35;;;;;;;7.95;4.85;;;;;;;29.20;39.09;100713.03;5031566;28;20056;-74
2022/08/04 08:17:03;;;;;;;8.00;4.97;;;;;;;29.31;39.11;100717.78;5047206;28;20075;-74
2022/08/04 08:19:31;;;;;;;11.05;3.75;;;;;;;29.39;38.88;100716.75;5040577;28;20067;-74
2022/08/04 08:21:59;;;;;;;8.07;5.05;;;;;;;29.52;38.58;100711.28;5021010;28;20045;-74
2022/08/04 08:24:34;;;;;;;11.52;3.85;;;;;;;29.58;37.82;100705.03;5026089;28;20046;-74
2022/08/04 08:27:03;;;;;;;10.57;3.83;;;;;;;29.69;37.79;100711.69;5046260;28;20053;-75
2022/08/04 08:29:33;;;;;;;9.32;4.15;;;;;;;29.80;37.39;100702.88;5044752;28;20061;-74
2022/08/04 08:32:02;;;;;;;9.88;3.97;;;;;;;29.83;37.51;100707.88;5013602;23;20521;-59
2022/08/04 08:34:35;;;;;;;10.13;3.47;;;;;;;29.99;36.86;100706.56;5026039;28;20400;-58
2022/08/04 08:37:19;;;;;;;8.93;3.10;;;;;;;30.10;36.83;100708.59;5025793;28;20402;-60
2022/08/04 08:39:49;;;;;;;6.38;3.75;;;;;;;30.18;36.74;100707.56;5014075;28;20054;-60
2022/08/04 08:42:41;;;;;;;9.50;3.38;;;;;;;30.24;36.88;100703.97;5002537;28;20056;-60
2022/08/04 08:45:11;;;;;;;6.65;3.80;;;;;;;30.24;36.79;100701.25;5010807;28;20136;-59
2022/08/04 08:47:55;;;;;;;7.03;3.60;;;;;;;30.39;36.40;100700.94;5014963;28;20045;-59
2022/08/04 08:50:56;;;;;;;11.40;3.95;;;;;;;30.53;36.33;100699.78;5015122;28;20049;-60
2022/08/04 08:53:47;;;;;;;6.78;3.78;;;;;;;30.66;36.33;100696.16;5009219;28;20053;-61
2022/08/04 08:56:17;;;;;;;5.78;3.85;;;;;;;30.84;35.28;100696.25;5011723;28;20053;-58
2022/08/04 08:59:02;;;;;;;15.10;4.60;;;;;;;30.91;35.28;100698.91;5057359;23;20051;-56
2022/08/04 09:02:09;;;;;;;6.53;3.38;;;;;;;31.14;35.20;100698.28;5048185;28;20510;-53
2022/08/04 09:04:54;;;;;;;6.38;3.65;;;;;;;31.26;34.12;100696.50;5055579;28;20045;-58
2022/08/04 09:07:53;;;;;;;5.55;3.13;;;;;;;31.38;34.28;100700.16;5046594;28;20044;-57
2022/08/04 09:10:35;;;;;;;8.38;3.83;;;;;;;31.58;34.41;100699.94;4961550;28;20451;-59
2022/08/04 09:13:13;;;;;;;9.98;3.38;;;;;;;31.69;33.27;100701.91;5056568;28;20394;-57
2022/08/04 09:15:46;;;;;;;9.68;3.67;;;;;;;31.84;32.85;100687.09;5058691;28;20053;-56
2022/08/04 09:18:43;;;;;;;7.78;3.63;;;;;;;31.97;33.00;100695.09;5060085;28;20135;-56
2022/08/04 09:21:16;;;;;;;9.00;3.15;;;;;;;32.08;33.49;100693.50;5050245;28;20048;-58
2022/08/04 09:23:49;;;;;;;8.70;3.35;;;;;;;32.24;32.84;100698.28;5050060;28;20094;-58
2022/08/04 09:26:45;;;;;;;5.75;3.70;;;;;;;32.32;32.75;100691.69;5058017;28;20059;-55
2022/08/04 09:29:40;;;;;;;13.35;3.38;;;;;;;32.46;32.64;100695.91;5048721;28;20057;-55
2022/08/04 09:32:16;;;;;;;9.38;3.17;;;;;;;32.64;31.96;100695.81;5045034;28;20044;-57
2022/08/04 09:35:09;;;;;;;8.27;3.47;;;;;;;32.76;30.85;100693.94;5063746;28;20052;-55
2022/08/04 09:37:51;;;;;;;7.05;3.42;;;;;;;32.89;30.73;100692.06;5057062;28;20064;-56
2022/08/04 09:40:45;;;;;;;7.30;3.25;;;;;;;32.88;30.39;100691.25;5058923;28;20140;-57
2022/08/04 09:43:38;;;;;;;4.85;2.70;;;;;;;32.93;30.88;100691.41;5057324;28;20060;-56
2022/08/04 09:46:41;;;;;;;8.07;3.78;;;;;;;33.19;30.72;100694.72;5047211;28;20048;-57
2022/08/04 09:49:15;;;;;;;5.38;2.67;;;;;;;33.33;30.35;100687.13;5056991;28;20049;-59
2022/08/04 09:51:43;;;;;;;;;;;;;;;33.42;29.99;100686.50;5055585;28;20045;-58
2022/08/04 09:55:02;;;;;;;7.25;2.80;;;;;;;33.66;29.82;100690.03;5046841;28;19928;-58
2022/08/04 09:57:51;;;;;;;6.00;3.10;;;;;;;33.75;29.88;100682.31;5060811;28;20041;-56
2022/08/04 10:00:19;;;;;;;9.10;3.60;;;;;;;33.72;29.78;100678.13;5060770;28;20059;-57
2022/08/04 10:03:11;;;;;;;6.25;3.30;;;;;;;33.82;29.41;100682.16;5062989;28;20111;-58
2022/08/04 10:06:24;;;;;;;11.13;3.20;;;;;;;33.84;29.53;100685.47;5067240;28;20060;-55
2022/08/04 10:09:13;;;;;;;9.40;2.95;;;;;;;33.98;29.20;100676.78;5058326;28;20531;-57
2022/08/04 10:11:54;;;;;;;6.72;2.70;;;;;;;34.18;29.17;100676.34;5060864;28;20056;-58
2022/08/04 10:14:31;;;;;;;6.35;3.15;;;;;;;34.27;28.76;100674.06;5050317;28;20505;-55
2022/08/04 10:17:18;;;;;;;4.65;2.95;;;;;;;34.37;28.49;100662.47;5066363;28;20055;-58
2022/08/04 10:19:52;;;;;;;4.53;2.60;;;;;;;34.51;28.66;100672.03;5055483;28;20049;-58
2022/08/04 10:22:24;;;;;;;5.80;2.80;;;;;;;34.69;28.11;100665.50;5069958;28;20059;-57
2022/08/04 10:25:14;;;;;;;6.95;2.63;;;;;;;34.73;27.52;100666.66;5060879;28;20457;-60
2022/08/04 10:28:10;;;;;;;4.75;2.53;;;;;;;34.80;27.52;100655.53;5054763;28;20052;-59
2022/08/04 10:30:43;;;;;;;3.53;2.83;;;;;;;34.80;27.92;100648.16;5063120;28;20049;-59
2022/08/04 10:33:37;;;;;;;3.88;2.35;;;;;;;34.96;27.08;100660.16;5061983;28;20045;-58
2022/08/04 10:36:16;;;;;;;5.65;2.30;;;;;;;35.09;26.98;100659.84;5057252;28;20049;-58
2022/08/04 10:38:52;;;;;;;4.85;2.80;;;;;;;35.11;26.26;100652.19;5060735;28;20044;-58
2022/08/04 10:41:43;;;;;;;5.40;2.90;;;;;;;35.24;26.66;100661.94;5054874;28;20371;-56
2022/08/04 10:44:23;;;;;;;6.47;3.03;;;;;;;35.15;26.28;100653.34;5056265;28;20145;-57
2022/08/04 10:46:54;;;;;;;5.18;2.60;;;;;;;35.14;26.22;100653.63;5066635;28;20053;-59
2022/08/04 10:49:23;;;;;;;6.32;2.53;;;;;;;35.18;26.01;100654.75;5060566;28;20076;-58
2022/08/04 10:51:50;;;;;;;2.75;2.30;;;;;;;35.31;25.94;100645.38;5051569;28;20046;-57
2022/08/04 10:54:24;;;;;;;2.88;2.38;;;;;;;35.47;25.79;100649.97;5064974;28;20056;-57
2022/08/04 10:56:56;;;;;;;4.20;2.42;;;;;;;35.30;25.65;100641.78;5067440;28;20052;-56
2022/08/04 10:59:29;;;;;;;7.43;2.65;;;;;;;35.47;26.02;100644.50;5063304;28;20048;-55
2022/08/04 11:02:01;;;;;;;5.28;2.72;;;;;;;35.44;25.57;100640.34;5058572;28;20076;-55
2022/08/04 11:04:38;;;;;;;4.22;2.60;;;;;;;35.71;25.32;100631.34;5071137;28;20059;-52
2022/08/04 11:07:06;;;;;;;9.05;2.90;;;;;;;36.06;25.68;100625.44;5066432;28;20049;-57
2022/08/04 11:09:34;;;;;;;2.85;2.00;;;;;;;36.36;25.45;100618.59;5054377;28;20049;-54
2022/08/04 11:12:05;;;;;;;7.13;3.20;;;;;;;36.59;24.61;100631.16;5062481;28;20044;-55
2022/08/04 11:14:42;;;;;;;4.13;2.65;;;;;;;36.59;24.28;100622.91;5064060;28;20040;-56
2022/08/04 11:17:18;;;;;;;11.30;3.40;;;;;;;36.78;24.54;100610.44;5048553;28;20548;-52
2022/08/04 11:20:01;;;;;;;6.00;2.55;;;;;;;37.06;24.22;100617.47;5052181;28;20060;-54
2022/08/04 11:23:06;;;;;;;3.50;2.55;;;;;;;37.10;23.05;100615.03;5069188;28;20310;-57
2022/08/04 11:25:51;;;;;;;4.72;3.38;;;;;;;36.95;23.05;100610.28;5061459;28;20367;-55
2022/08/04 11:28:44;;;;;;;3.47;2.40;;;;;;;37.10;23.47;100613.09;5050914;28;20191;-55
2022/08/04 11:31:50;;;;;;;3.05;2.75;;;;;;;37.51;22.41;100613.31;5062408;28;20063;-54
2022/08/04 11:34:20;;;;;;;3.75;2.47;;;;;;;37.68;22.25;100608.41;5063561;28;20427;-57
2022/08/04 11:37:02;;;;;;;4.07;2.53;;;;;;;37.89;21.67;100605.75;5070889;28;20058;-58
2022/08/04 11:39:36;;;;;;;3.28;2.50;;;;;;;38.13;21.74;100609.63;5074290;28;20056;-58
2022/08/04 11:42:09;;;;;;;4.60;2.83;;;;;;;38.36;21.75;100608.28;5051478;28;20058;-59
2022/08/04 11:44:50;;;;;;;4.90;2.55;;;;;;;38.30;21.53;100606.59;5071994;28;20048;-58
2022/08/04 11:47:23;;;;;;;4.03;3.00;;;;;;;38.11;21.85;100611.00;5074469;28;20208;-59
2022/08/04 11:50:15;;;;;;;2.72;2.50;;;;;;;38.08;21.69;100600.53;5063291;28;20049;-58
2022/08/04 11:52:43;;;;;;;5.70;2.85;;;;;;;38.30;21.18;100605.78;5057713;28;20056;-57
2022/08/04 11:55:14;;;;;;;5.10;2.55;;;;;;;38.39;21.12;100595.91;5059448;28;20092;-57
2022/08/04 11:57:43;;;;;;;7.82;2.85;;;;;;;38.52;21.26;100605.53;5074483;28;20052;-58
2022/08/04 12:00:15;;;;;;;7.18;2.70;;;;;;;38.46;20.92;100607.47;5056990;28;20048;-57
2022/08/04 12:03:10;;;;;;;4.88;2.95;;;;;;;38.18;21.15;100612.38;5069952;28;20049;-56
2022/08/04 12:06:12;;;;;;;5.50;3.22;;;;;;;38.29;20.88;100595.88;5060441;28;20385;-55
2022/08/04 12:08:53;;;;;;;7.22;2.80;;;;;;;38.66;20.94;100599.16;5068729;28;20319;-55
2022/08/04 12:11:46;;;;;;;6.45;2.60;;;;;;;39.00;20.66;100596.66;5057270;28;20049;-55
2022/08/04 12:14:43;;;;;;;9.85;3.83;;;;;;;38.97;19.74;100597.19;5067818;28;20060;-58
2022/08/04 12:17:12;;;;;;;5.60;2.70;;;;;;;38.87;19.97;100604.66;5053745;28;20056;-58
2022/08/04 12:19:46;;;;;;;4.28;2.45;;;;;;;38.91;19.09;100605.72;5067357;28;20124;-56
2022/08/04 12:22:34;;;;;;;4.70;2.60;;;;;;;38.98;19.24;100603.53;5058803;28;20063;-54
2022/08/04 12:25:11;;;;;;;7.63;2.90;;;;;;;39.06;19.31;100608.47;5060737;28;20066;-56
2022/08/04 12:27:52;;;;;;;4.18;2.65;;;;;;;38.98;19.47;100592.50;5059086;28;20048;-56